createdAt,value
2023-03-26T00:01:15.459Z,18.15
2023-03-26T00:03:44.912Z,18.15
2023-03-26T00:06:16.658Z,18.14
2023-03-26T00:08:45.724Z,18.15
2023-03-26T00:11:14.551Z,18.15
2023-03-26T00:13:43.892Z,18.14
2023-03-26T00:16:19.748Z,18.11
2023-03-26T00:18:47.413Z,18.12
2023-03-26T00:21:16.216Z,18.11
2023-03-26T00:23:43.837Z,18.09
2023-03-26T00:26:11.182Z,18.09
2023-03-26T00:28:40.699Z,18.08
2023-03-26T00:31:11.332Z,18.06
2023-03-26T00:33:40.825Z,18.06
2023-03-26T00:36:16.593Z,18.05
2023-03-26T00:38:45.034Z,18.04
2023-03-26T00:41:25.110Z,18.03
2023-03-26T00:43:58.061Z,18.03
2023-03-26T00:46:26.226Z,18.02
2023-03-26T00:48:52.868Z,18.01
2023-03-26T00:51:20.836Z,17.99
2023-03-26T00:53:49.249Z,17.99
2023-03-26T00:56:16.182Z,17.99
2023-03-26T00:58:43.243Z,17.98
2023-03-26T01:01:15.464Z,17.97
2023-03-26T01:03:50.385Z,17.97
2023-03-26T01:06:36.703Z,17.98
2023-03-26T01:09:14.323Z,17.96
2023-03-26T01:11:40.882Z,17.94
2023-03-26T01:14:14.579Z,17.94
2023-03-26T01:16:47.078Z,17.93
2023-03-26T01:19:29.618Z,17.96
2023-03-26T01:21:57.998Z,17.94
2023-03-26T01:24:24.522Z,17.94
2023-03-26T01:27:17.914Z,17.93
2023-03-26T01:29:54.132Z,17.93
2023-03-26T01:32:28.947Z,17.94
2023-03-26T01:35:33.732Z,17.91
2023-03-26T01:38:25.890Z,17.92
2023-03-26T01:41:08.050Z,17.91
2023-03-26T01:43:43.715Z,17.90
2023-03-26T01:46:12.872Z,17.90
2023-03-26T01:48:42.536Z,17.90
2023-03-26T01:51:11.340Z,17.90
2023-03-26T01:53:48.572Z,17.91
2023-03-26T01:56:41.994Z,17.89
2023-03-26T01:59:46.516Z,17.88
2023-03-26T02:02:18.230Z,17.90
2023-03-26T02:05:09.620Z,17.89
2023-03-26T02:07:51.025Z,17.89
2023-03-26T02:10:26.766Z,17.89
2023-03-26T02:12:54.229Z,17.89
2023-03-26T02:15:21.316Z,17.89
2023-03-26T02:17:49.532Z,17.90
2023-03-26T02:20:20.026Z,17.89
2023-03-26T02:22:47.269Z,17.89
2023-03-26T02:25:19.128Z,17.88
2023-03-26T02:27:46.623Z,17.89
2023-03-26T02:30:16.770Z,17.89
2023-03-26T02:32:43.853Z,17.89
2023-03-26T02:35:12.279Z,17.88
2023-03-26T02:37:40.093Z,17.89
2023-03-26T02:40:11.258Z,17.89
2023-03-26T02:42:38.349Z,17.88
2023-03-26T02:45:06.741Z,17.88
2023-03-26T02:47:33.851Z,17.87
2023-03-26T02:50:01.468Z,17.86
2023-03-26T02:52:27.998Z,17.84
2023-03-26T02:54:54.586Z,17.84
2023-03-26T02:57:21.661Z,17.84
2023-03-26T02:59:50.314Z,17.82
2023-03-26T03:02:18.291Z,17.81
2023-03-26T03:04:45.013Z,17.81
2023-03-26T03:07:14.956Z,17.80
2023-03-26T03:09:41.744Z,17.80
2023-03-26T03:12:08.266Z,17.80
2023-03-26T03:14:35.701Z,17.79
2023-03-26T03:17:02.299Z,17.79
2023-03-26T03:19:28.855Z,17.79
2023-03-26T03:21:55.546Z,17.78
2023-03-26T03:24:23.442Z,17.78
2023-03-26T03:26:50.371Z,17.77
2023-03-26T03:29:17.374Z,17.76
2023-03-26T03:31:43.877Z,17.76
2023-03-26T03:34:10.377Z,17.75
2023-03-26T03:36:38.381Z,17.74
2023-03-26T03:39:05.205Z,17.74
2023-03-26T03:41:31.834Z,17.74
2023-03-26T03:43:59.841Z,17.72
2023-03-26T03:46:26.426Z,17.72
2023-03-26T03:48:52.980Z,17.72
2023-03-26T03:51:19.775Z,17.71
2023-03-26T03:53:47.232Z,17.71
2023-03-26T03:56:14.777Z,17.70
2023-03-26T03:58:42.235Z,17.70
2023-03-26T04:01:08.851Z,17.70
2023-03-26T04:03:38.838Z,17.70
2023-03-26T04:06:06.933Z,17.70
2023-03-26T04:08:34.688Z,17.69
2023-03-26T04:11:01.936Z,17.69
2023-03-26T04:13:28.674Z,17.70
2023-03-26T04:15:55.996Z,17.68
2023-03-26T04:18:23.287Z,17.68
2023-03-26T04:20:49.849Z,17.68
2023-03-26T04:23:18.765Z,17.68
2023-03-26T04:25:49.607Z,17.68
2023-03-26T04:28:30.496Z,17.68
2023-03-26T04:31:00.758Z,17.69
2023-03-26T04:33:29.698Z,17.69
2023-03-26T04:36:01.452Z,17.70
2023-03-26T04:38:33.437Z,17.70
2023-03-26T04:41:02.643Z,17.71
2023-03-26T04:43:31.245Z,17.70
2023-03-26T04:45:57.883Z,17.71
2023-03-26T04:48:24.464Z,17.71
2023-03-26T04:50:51.120Z,17.71
2023-03-26T04:53:21.127Z,17.71
2023-03-26T04:56:00.061Z,17.70
2023-03-26T04:58:32.575Z,17.72
2023-03-26T05:01:09.939Z,17.72
2023-03-26T05:03:39.253Z,17.72
2023-03-26T05:06:06.222Z,17.72
2023-03-26T05:08:32.833Z,17.72
2023-03-26T05:10:59.349Z,17.72
2023-03-26T05:13:25.896Z,17.71
2023-03-26T05:15:52.658Z,17.72
2023-03-26T05:18:19.331Z,17.72
2023-03-26T05:20:46.425Z,17.71
2023-03-26T05:23:13.034Z,17.72
2023-03-26T05:25:39.530Z,17.72
2023-03-26T05:28:06.269Z,17.72
2023-03-26T05:30:32.821Z,17.71
2023-03-26T05:32:59.416Z,17.72
2023-03-26T05:35:26.308Z,17.72
2023-03-26T05:37:52.923Z,17.71
2023-03-26T05:40:20.126Z,17.70
2023-03-26T05:42:47.374Z,17.71
2023-03-26T05:45:15.389Z,17.71
2023-03-26T05:47:42.125Z,17.70
2023-03-26T05:50:09.961Z,17.69
2023-03-26T05:52:36.916Z,17.69
2023-03-26T05:55:03.979Z,17.69
2023-03-26T05:57:31.174Z,17.69
2023-03-26T05:59:57.768Z,17.68
2023-03-26T06:02:24.317Z,17.68
2023-03-26T06:04:51.136Z,17.67
2023-03-26T06:07:18.672Z,17.66
2023-03-26T06:09:45.735Z,17.66
2023-03-26T06:12:12.549Z,17.66
2023-03-26T06:14:39.313Z,17.66
2023-03-26T06:17:05.849Z,17.65
2023-03-26T06:19:32.367Z,17.66
2023-03-26T06:21:58.979Z,17.66
2023-03-26T06:24:25.651Z,17.65
2023-03-26T06:26:52.548Z,17.65
2023-03-26T06:29:19.668Z,17.66
2023-03-26T06:31:46.376Z,17.65
2023-03-26T06:34:12.944Z,17.66
2023-03-26T06:36:39.483Z,17.67
2023-03-26T06:39:07.571Z,17.65
2023-03-26T06:41:35.471Z,17.65
2023-03-26T06:44:02.114Z,17.69
2023-03-26T06:46:29.021Z,17.76
2023-03-26T06:48:55.842Z,17.84
2023-03-26T06:51:22.379Z,17.98
2023-03-26T06:53:49.001Z,18.17
2023-03-26T06:56:15.529Z,18.37
2023-03-26T06:58:42.067Z,18.58
2023-03-26T07:01:08.656Z,18.78
2023-03-26T07:03:35.403Z,18.97
2023-03-26T07:06:02.068Z,19.16
2023-03-26T07:08:28.686Z,19.36
2023-03-26T07:10:55.423Z,19.54
2023-03-26T07:13:22.181Z,19.70
2023-03-26T07:15:49.225Z,19.86
2023-03-26T07:18:15.904Z,20.00
2023-03-26T07:20:44.773Z,20.09
2023-03-26T07:23:12.460Z,20.21
2023-03-26T07:25:39.356Z,20.32
2023-03-26T07:28:37.316Z,20.40
2023-03-26T07:31:34.794Z,20.50
2023-03-26T07:34:17.050Z,20.59
2023-03-26T07:36:57.237Z,20.65
2023-03-26T07:39:32.542Z,20.70
2023-03-26T07:42:12.066Z,20.78
2023-03-26T07:45:23.747Z,20.83
2023-03-26T07:47:53.501Z,20.89
2023-03-26T07:50:23.012Z,20.94
2023-03-26T07:52:49.872Z,21.00
2023-03-26T07:55:17.374Z,21.04
2023-03-26T07:58:02.737Z,21.06
2023-03-26T08:01:12.159Z,21.07
2023-03-26T08:04:24.594Z,21.08
2023-03-26T08:07:18.693Z,21.10
2023-03-26T08:10:11.716Z,21.14
2023-03-26T08:12:53.884Z,21.18
2023-03-26T08:15:21.167Z,21.23
2023-03-26T08:18:03.960Z,21.24
2023-03-26T08:20:50.692Z,21.24
2023-03-26T08:23:29.484Z,21.20
2023-03-26T08:26:09.425Z,21.17
2023-03-26T08:28:55.394Z,21.11
2023-03-26T08:31:32.907Z,21.06
2023-03-26T08:34:00.125Z,21.03
2023-03-26T08:36:27.752Z,20.98
2023-03-26T08:38:54.385Z,20.92
2023-03-26T08:41:30.874Z,20.85
2023-03-26T08:44:26.351Z,20.80
2023-03-26T08:47:31.510Z,20.73
2023-03-26T08:50:07.044Z,20.70
2023-03-26T08:52:49.845Z,20.62
2023-03-26T08:55:24.346Z,20.58
2023-03-26T08:58:09.300Z,20.53
2023-03-26T09:00:35.970Z,20.49
2023-03-26T09:03:17.189Z,20.44
2023-03-26T09:06:41.366Z,20.38
2023-03-26T09:09:45.401Z,20.37
2023-03-26T09:12:30.706Z,20.33
2023-03-26T09:15:28.651Z,20.29
2023-03-26T09:18:30.460Z,20.25
2023-03-26T09:21:25.517Z,20.21
2023-03-26T09:24:12.506Z,20.19
2023-03-26T09:27:05.212Z,20.18
2023-03-26T09:29:56.021Z,20.14
2023-03-26T09:33:16.396Z,20.13
2023-03-26T09:36:27.048Z,20.12
2023-03-26T09:39:07.363Z,20.15
2023-03-26T09:41:43.925Z,20.15
2023-03-26T09:44:31.030Z,20.15
2023-03-26T09:47:26.496Z,20.15
2023-03-26T09:50:11.604Z,20.16
2023-03-26T09:53:00.370Z,20.15
2023-03-26T09:55:39.973Z,20.19
2023-03-26T09:58:38.825Z,20.24
2023-03-26T10:01:34.093Z,20.27
2023-03-26T10:04:07.109Z,20.31
2023-03-26T10:06:44.422Z,20.34
2023-03-26T10:09:34.516Z,20.38
2023-03-26T10:12:24.010Z,20.41
2023-03-26T10:15:26.526Z,20.43
2023-03-26T10:18:27.563Z,20.46
2023-03-26T10:21:07.511Z,20.49
2023-03-26T10:24:04.705Z,20.50
2023-03-26T10:27:08.319Z,20.53
2023-03-26T10:29:54.658Z,20.55
2023-03-26T10:32:37.886Z,20.55
2023-03-26T10:35:35.849Z,20.54
2023-03-26T10:38:31.848Z,20.55
2023-03-26T10:41:17.261Z,20.54
2023-03-26T10:43:57.784Z,20.52
2023-03-26T10:46:52.285Z,20.51
2023-03-26T10:49:37.646Z,20.47
2023-03-26T10:52:12.010Z,20.46
2023-03-26T10:54:50.422Z,20.44
2023-03-26T10:57:23.174Z,20.42
2023-03-26T10:59:50.284Z,20.41
2023-03-26T11:02:38.689Z,20.35
2023-03-26T11:05:23.881Z,20.25
2023-03-26T11:08:06.604Z,20.20
2023-03-26T11:10:55.061Z,20.13
2023-03-26T11:13:56.592Z,20.09
2023-03-26T11:16:34.348Z,20.04
2023-03-26T11:19:27.050Z,20.01
2023-03-26T11:22:14.731Z,19.99
2023-03-26T11:25:21.631Z,19.96
2023-03-26T11:28:32.825Z,19.94
2023-03-26T11:31:19.601Z,19.97
2023-03-26T11:33:50.287Z,20.02
2023-03-26T11:36:22.683Z,20.03
2023-03-26T11:38:55.740Z,20.03
2023-03-26T11:41:25.762Z,20.06
2023-03-26T11:44:21.114Z,20.04
2023-03-26T11:46:50.361Z,20.08
2023-03-26T11:49:20.190Z,20.09
2023-03-26T11:51:48.494Z,20.09
2023-03-26T11:54:16.397Z,20.10
2023-03-26T11:57:05.211Z,20.10
2023-03-26T11:59:55.531Z,20.11
2023-03-26T12:02:29.284Z,20.13
2023-03-26T12:05:12.224Z,20.13
2023-03-26T12:07:56.777Z,20.16
2023-03-26T12:10:42.685Z,20.17
2023-03-26T12:13:21.205Z,20.19
2023-03-26T12:15:48.044Z,20.22
2023-03-26T12:18:23.985Z,20.25
2023-03-26T12:21:14.776Z,20.33
2023-03-26T12:24:00.930Z,20.43
2023-03-26T12:26:37.168Z,20.53
2023-03-26T12:29:10.936Z,20.63
2023-03-26T12:32:14.215Z,20.69
2023-03-26T12:34:41.530Z,20.75
2023-03-26T12:37:35.866Z,20.77
2023-03-26T12:40:28.096Z,20.80
2023-03-26T12:44:56.641Z,20.80
2023-03-26T12:45:44.209Z,20.83
2023-03-26T12:48:15.704Z,20.83
2023-03-26T12:50:57.255Z,20.84
2023-03-26T12:53:55.106Z,20.82
2023-03-26T12:56:36.648Z,20.82
2023-03-26T12:59:37.138Z,20.79
2023-03-26T13:02:19.139Z,20.80
2023-03-26T13:05:23.711Z,20.76
2023-03-26T13:08:09.051Z,20.75
2023-03-26T13:10:48.144Z,20.76
2023-03-26T13:13:36.227Z,20.76
2023-03-26T13:16:24.498Z,20.72
2023-03-26T13:18:56.707Z,20.71
2023-03-26T13:21:30.968Z,20.69
2023-03-26T13:24:19.026Z,20.67
2023-03-26T13:27:31.188Z,20.67
2023-03-26T13:30:17.181Z,20.69
2023-03-26T13:33:19.553Z,20.72
2023-03-26T13:36:19.351Z,20.77
2023-03-26T13:39:05.084Z,20.79
2023-03-26T13:41:59.029Z,20.82
2023-03-26T13:45:04.557Z,20.85
2023-03-26T13:47:37.101Z,20.88
2023-03-26T13:50:14.322Z,20.91
2023-03-26T13:53:14.162Z,20.90
2023-03-26T13:56:01.016Z,20.93
2023-03-26T13:58:52.264Z,20.94
2023-03-26T14:01:34.676Z,20.95
2023-03-26T14:04:19.758Z,20.97
2023-03-26T14:06:57.589Z,20.97
2023-03-26T14:09:41.193Z,21.01
2023-03-26T14:12:24.617Z,21.10
2023-03-26T14:15:04.451Z,21.14
2023-03-26T14:17:52.479Z,21.18
2023-03-26T14:20:39.953Z,21.20
2023-03-26T14:23:32.764Z,21.26
2023-03-26T14:26:31.791Z,21.27
2023-03-26T14:29:04.453Z,21.29
2023-03-26T14:31:42.875Z,21.30
2023-03-26T14:34:27.180Z,21.29
2023-03-26T14:37:27.784Z,21.31
2023-03-26T14:40:15.099Z,21.33
2023-03-26T14:43:20.497Z,21.34
2023-03-26T14:45:58.674Z,21.35
2023-03-26T14:48:34.257Z,21.33
2023-03-26T14:51:00.763Z,21.33
2023-03-26T14:53:35.641Z,21.32
2023-03-26T14:56:02.163Z,21.31
2023-03-26T14:58:34.331Z,21.29
2023-03-26T15:01:25.093Z,21.26
2023-03-26T15:04:45.382Z,21.25
2023-03-26T15:07:37.071Z,21.23
2023-03-26T15:10:34.580Z,21.20
2023-03-26T15:13:30.629Z,21.18
2023-03-26T15:16:26.227Z,21.13
2023-03-26T15:19:10.690Z,21.06
2023-03-26T15:21:55.500Z,20.98
2023-03-26T15:24:31.125Z,20.92
2023-03-26T15:27:15.969Z,20.85
2023-03-26T15:30:17.683Z,20.80
2023-03-26T15:33:12.267Z,20.76
2023-03-26T15:36:10.405Z,20.78
2023-03-26T15:38:55.611Z,20.81
2023-03-26T15:41:56.386Z,20.82
2023-03-26T15:44:38.095Z,20.85
2023-03-26T15:47:37.980Z,20.92
2023-03-26T15:50:43.139Z,20.99
2023-03-26T15:53:34.061Z,21.08
2023-03-26T15:56:26.002Z,21.16
2023-03-26T15:59:16.458Z,21.24
2023-03-26T16:02:03.869Z,21.31
2023-03-26T16:05:05.811Z,21.37
2023-03-26T16:07:58.716Z,21.44
2023-03-26T16:10:46.959Z,21.48
2023-03-26T16:13:34.910Z,21.51
2023-03-26T16:16:04.464Z,21.52
2023-03-26T16:18:45.499Z,21.52
2023-03-26T16:21:32.426Z,21.50
2023-03-26T16:24:02.146Z,21.47
2023-03-26T16:26:31.435Z,21.43
2023-03-26T16:29:15.706Z,21.36
2023-03-26T16:32:08.059Z,21.32
2023-03-26T16:34:39.115Z,21.30
2023-03-26T16:37:35.999Z,21.23
2023-03-26T16:40:18.114Z,21.19
2023-03-26T16:43:06.379Z,21.16
2023-03-26T16:45:54.740Z,21.10
2023-03-26T16:48:30.338Z,21.04
2023-03-26T16:51:29.501Z,20.98
2023-03-26T16:54:32.982Z,20.92
2023-03-26T16:57:26.040Z,20.84
2023-03-26T17:00:06.201Z,20.73
2023-03-26T17:03:00.006Z,20.62
2023-03-26T17:05:58.540Z,20.57
2023-03-26T17:08:53.372Z,20.48
2023-03-26T17:11:57.437Z,20.44
2023-03-26T17:14:53.671Z,20.47
2023-03-26T17:17:45.041Z,20.58
2023-03-26T17:20:17.323Z,20.72
2023-03-26T17:22:57.002Z,20.83
2023-03-26T17:26:02.841Z,20.95
2023-03-26T17:28:57.434Z,21.06
2023-03-26T17:31:35.237Z,21.15
2023-03-26T17:34:38.552Z,21.24
2023-03-26T17:37:29.548Z,21.34
2023-03-26T17:40:02.120Z,21.39
2023-03-26T17:42:33.824Z,21.43
2023-03-26T17:45:28.945Z,21.41
2023-03-26T17:48:20.516Z,21.43
2023-03-26T17:50:56.444Z,21.44
2023-03-26T17:53:31.118Z,21.43
2023-03-26T17:56:03.622Z,21.42
2023-03-26T17:58:42.650Z,21.41
2023-03-26T18:01:38.365Z,21.41
2023-03-26T18:04:36.506Z,21.43
2023-03-26T18:07:37.115Z,21.43
2023-03-26T18:10:32.961Z,21.40
2023-03-26T18:13:12.372Z,21.37
2023-03-26T18:15:51.242Z,21.33
2023-03-26T18:18:30.217Z,21.29
2023-03-26T18:21:00.858Z,21.21
2023-03-26T18:23:44.112Z,21.19
2023-03-26T18:26:11.242Z,21.20
2023-03-26T18:28:43.992Z,21.18
2023-03-26T18:31:24.786Z,21.14
2023-03-26T18:33:56.992Z,21.11
2023-03-26T18:36:27.549Z,21.05
2023-03-26T18:38:58.776Z,20.97
2023-03-26T18:41:41.712Z,20.89
2023-03-26T18:44:15.725Z,20.82
2023-03-26T18:46:43.338Z,20.76
2023-03-26T18:49:14.792Z,20.70
2023-03-26T18:51:55.994Z,20.65
2023-03-26T18:54:24.836Z,20.60
2023-03-26T18:56:52.692Z,20.57
2023-03-26T18:59:31.829Z,20.52
2023-03-26T19:02:25.201Z,20.46
2023-03-26T19:04:54.323Z,20.49
2023-03-26T19:07:26.489Z,20.49
2023-03-26T19:09:56.393Z,20.51
2023-03-26T19:12:28.507Z,20.51
2023-03-26T19:14:58.490Z,20.52
2023-03-26T19:17:29.815Z,20.49
2023-03-26T19:19:57.511Z,20.50
2023-03-26T19:22:25.717Z,20.50
2023-03-26T19:24:57.803Z,20.49
2023-03-26T19:27:27.428Z,20.49
2023-03-26T19:29:55.968Z,20.46
2023-03-26T19:32:34.620Z,20.44
2023-03-26T19:35:04.533Z,20.44
2023-03-26T19:37:32.341Z,20.44
2023-03-26T19:40:19.930Z,20.40
2023-03-26T19:42:48.750Z,20.40
2023-03-26T19:45:20.518Z,20.40
2023-03-26T19:47:57.324Z,20.36
2023-03-26T19:50:33.732Z,20.35
2023-03-26T19:53:17.730Z,20.34
2023-03-26T19:56:14.480Z,20.29
2023-03-26T19:58:42.724Z,20.30
2023-03-26T20:01:23.629Z,20.27
2023-03-26T20:03:54.286Z,20.27
2023-03-26T20:06:30.778Z,20.25
2023-03-26T20:09:01.181Z,20.22
2023-03-26T20:11:39.097Z,20.20
2023-03-26T20:14:13.120Z,20.17
2023-03-26T20:16:40.645Z,20.17
2023-03-26T20:19:08.829Z,20.16
2023-03-26T20:21:38.271Z,20.14
2023-03-26T20:24:12.980Z,20.13
2023-03-26T20:26:39.551Z,20.12
2023-03-26T20:29:06.225Z,20.11
2023-03-26T20:31:33.143Z,20.11
2023-03-26T20:33:59.834Z,20.09
2023-03-26T20:36:34.058Z,20.07
2023-03-26T20:39:03.008Z,20.05
2023-03-26T20:41:29.565Z,20.04
2023-03-26T20:43:56.902Z,20.03
2023-03-26T20:46:30.833Z,20.02
2023-03-26T20:48:58.038Z,20.01
2023-03-26T20:51:24.634Z,19.99
2023-03-26T20:53:51.303Z,19.99
2023-03-26T20:56:20.154Z,19.96
2023-03-26T20:59:03.488Z,19.94
2023-03-26T21:01:34.747Z,19.92
2023-03-26T21:04:04.169Z,19.92
2023-03-26T21:06:30.818Z,19.89
2023-03-26T21:08:57.658Z,19.88
2023-03-26T21:11:37.098Z,19.87
2023-03-26T21:14:18.499Z,19.85
2023-03-26T21:16:45.372Z,19.84
2023-03-26T21:19:12.358Z,19.82
2023-03-26T21:21:47.795Z,19.80
2023-03-26T21:24:33.182Z,19.80
2023-03-26T21:27:14.668Z,19.76
2023-03-26T21:29:41.808Z,19.76
2023-03-26T21:32:11.129Z,19.75
2023-03-26T21:34:42.136Z,19.73
2023-03-26T21:37:15.682Z,19.72
2023-03-26T21:39:44.823Z,19.70
2023-03-26T21:42:12.822Z,19.69
2023-03-26T21:44:40.000Z,19.68
2023-03-26T21:47:09.798Z,19.67
2023-03-26T21:49:37.256Z,19.65
2023-03-26T21:52:04.084Z,19.64
2023-03-26T21:54:32.952Z,19.63
2023-03-26T21:57:29.089Z,19.60
2023-03-26T22:00:18.174Z,19.56
2023-03-26T22:02:53.130Z,19.58
2023-03-26T22:05:40.576Z,19.57
2023-03-26T22:08:08.565Z,19.55
2023-03-26T22:10:35.069Z,19.53
2023-03-26T22:13:01.614Z,19.52
2023-03-26T22:15:30.681Z,19.51
2023-03-26T22:18:02.443Z,19.51
2023-03-26T22:20:29.410Z,19.50
2023-03-26T22:22:55.979Z,19.50
2023-03-26T22:25:23.938Z,19.48
2023-03-26T22:27:51.483Z,19.48
2023-03-26T22:30:18.912Z,19.47
2023-03-26T22:32:45.579Z,19.47
2023-03-26T22:35:13.017Z,19.45
2023-03-26T22:37:40.423Z,19.45
2023-03-26T22:40:08.757Z,19.45
2023-03-26T22:42:36.283Z,19.44
2023-03-26T22:45:04.100Z,19.43
2023-03-26T22:47:33.797Z,19.42
2023-03-26T22:50:00.795Z,19.40
2023-03-26T22:52:28.108Z,19.39
2023-03-26T22:54:54.780Z,19.39
2023-03-26T22:57:24.071Z,19.38
2023-03-26T22:59:50.796Z,19.37
2023-03-26T23:02:17.951Z,19.37
2023-03-26T23:04:44.837Z,19.35
2023-03-26T23:07:11.493Z,19.34
2023-03-26T23:09:38.018Z,19.33
2023-03-26T23:12:04.937Z,19.32
2023-03-26T23:14:34.317Z,19.31
2023-03-26T23:17:01.487Z,19.31
2023-03-26T23:19:29.874Z,19.30
2023-03-26T23:21:56.599Z,19.29
2023-03-26T23:24:26.225Z,19.27
2023-03-26T23:26:54.558Z,19.27
2023-03-26T23:29:21.498Z,19.25
2023-03-26T23:31:48.173Z,19.23
2023-03-26T23:34:16.797Z,19.21
2023-03-26T23:36:44.696Z,19.20
2023-03-26T23:39:11.578Z,19.20
2023-03-26T23:41:38.128Z,19.18
2023-03-26T23:44:04.809Z,19.17
2023-03-26T23:46:34.692Z,19.17
2023-03-26T23:49:04.167Z,19.15
2023-03-26T23:51:31.381Z,19.14
2023-03-26T23:53:58.499Z,19.12
2023-03-26T23:56:27.013Z,19.12
2023-03-26T23:58:53.851Z,19.11
